Time;durP1;ratioP1;P1;durP2;ratioP2;P2;SDS_P1;SDS_P2;PMS_P1;PMS_P2;Temp;Humidity;BMP_temperature;BMP_pressure;BME280_temperature;BME280_humidity;BME280_pressure;Samples;Min_cycle;Max_cycle;Signal;HPM_P1;HPM_P2
2023/01/29 00:01:43;;;;;;;32.15;14.85;;;;;;;-0.23;97.77;97181.81;5031758;28;20045;-79
2023/01/29 00:04:10;;;;;;;28.85;15.48;;;;;;;-0.28;97.96;97175.28;5039827;28;20048;-80
2023/01/29 00:06:38;;;;;;;31.05;15.00;;;;;;;-0.25;97.89;97176.72;5038148;28;20136;-79
2023/01/29 00:09:04;;;;;;;28.33;14.50;;;;;;;-0.20;97.99;97181.38;5037952;28;20053;-85
2023/01/29 00:11:31;;;;;;;27.08;14.77;;;;;;;-0.25;97.74;97189.28;5037843;28;20045;-83
2023/01/29 00:13:58;;;;;;;28.52;14.88;;;;;;;-0.25;97.77;97192.75;5036726;28;20048;-83
2023/01/29 00:16:24;;;;;;;33.22;15.70;;;;;;;-0.29;97.71;97189.72;5035537;28;20041;-81
2023/01/29 00:18:51;;;;;;;29.00;14.77;;;;;;;-0.25;97.85;97183.94;5037149;28;20057;-82
2023/01/29 00:21:19;;;;;;;29.05;14.23;;;;;;;-0.24;97.36;97194.41;5035875;28;20049;-79
2023/01/29 00:23:47;;;;;;;28.70;13.80;;;;;;;-0.22;97.30;97188.81;5032782;28;20049;-81
2023/01/29 00:26:14;;;;;;;29.58;14.95;;;;;;;-0.20;97.05;97192.91;5032872;28;20056;-80
2023/01/29 00:28:41;;;;;;;28.05;14.15;;;;;;;-0.23;97.21;97204.06;5034198;28;20064;-80
2023/01/29 00:31:08;;;;;;;28.25;14.60;;;;;;;-0.23;97.38;97193.34;5032449;28;20533;-79
2023/01/29 00:33:35;;;;;;;28.77;13.88;;;;;;;-0.23;96.71;97190.66;5033466;28;20506;-80
2023/01/29 00:36:03;;;;;;;29.55;14.98;;;;;;;-0.28;96.44;97194.03;5035810;28;20395;-82
2023/01/29 00:38:30;;;;;;;26.38;14.35;;;;;;;-0.22;96.35;97199.50;5035263;28;20498;-85
2023/01/29 00:46:26;;;;;;;26.92;13.75;;;;;;;-0.28;96.90;97183.31;5045191;28;20076;-82
2023/01/29 00:48:52;;;;;;;23.70;13.48;;;;;;;-0.27;96.59;97187.63;5036310;28;20049;-79
2023/01/29 00:51:19;;;;;;;25.10;12.98;;;;;;;-0.22;96.61;97183.44;5033205;28;20056;-82
2023/01/29 00:53:45;;;;;;;26.00;13.55;;;;;;;-0.17;96.60;97181.72;5041715;28;20045;-85
2023/01/29 00:56:13;;;;;;;25.88;14.35;;;;;;;-0.12;96.44;97178.34;5033383;28;20391;-80
2023/01/29 00:58:39;;;;;;;27.08;13.82;;;;;;;-0.11;96.38;97174.63;5034621;28;20049;-81
2023/01/29 01:01:06;;;;;;;25.42;12.85;;;;;;;-0.13;96.27;97176.72;5034859;28;20049;-79
2023/01/29 01:03:34;;;;;;;21.42;11.20;;;;;;;-0.18;96.35;97179.28;5035912;28;20046;-81
2023/01/29 01:06:04;;;;;;;22.33;12.65;;;;;;;-0.14;96.32;97183.13;5034606;28;20045;-79
2023/01/29 01:11:16;;;;;;;22.05;12.57;;;;;;;-0.13;95.98;97187.44;5034213;28;20520;-81
2023/01/29 01:13:43;;;;;;;23.38;12.45;;;;;;;-0.07;95.68;97186.50;5033700;28;20045;-80
2023/01/29 01:16:11;;;;;;;21.75;11.25;;;;;;;-0.06;95.58;97182.78;5033052;28;20521;-82
2023/01/29 01:18:37;;;;;;;23.65;11.52;;;;;;;-0.07;95.37;97186.50;5035774;28;20621;-82
2023/01/29 01:21:05;;;;;;;22.65;10.82;;;;;;;-0.07;95.33;97183.84;5034527;28;20041;-84
2023/01/29 01:23:31;;;;;;;19.02;10.13;;;;;;;-0.04;95.16;97183.38;5042228;28;20041;-83
2023/01/29 01:25:58;;;;;;;20.52;10.88;;;;;;;-0.01;94.52;97196.28;5040902;28;20048;-81
2023/01/29 01:28:25;;;;;;;25.77;11.15;;;;;;;0.01;93.75;97186.19;5038229;28;20060;-82
2023/01/29 01:30:52;;;;;;;25.73;12.30;;;;;;;0.00;93.53;97192.59;5055175;28;20445;-83
2023/01/29 01:33:19;;;;;;;23.50;11.88;;;;;;;-0.02;93.30;97189.31;5041939;28;20053;-85
2023/01/29 01:35:45;;;;;;;19.08;10.02;;;;;;;-0.02;93.39;97195.50;5047995;28;20037;-82
2023/01/29 01:38:12;;;;;;;20.00;10.50;;;;;;;0.00;93.12;97197.94;5043362;28;20406;-81
2023/01/29 01:40:44;;;;;;;18.83;9.98;;;;;;;0.01;93.05;97196.09;5051204;28;20041;-84
2023/01/29 01:43:11;;;;;;;17.90;9.70;;;;;;;0.02;92.83;97190.50;5050089;28;20067;-84
2023/01/29 01:45:39;;;;;;;21.40;11.82;;;;;;;0.05;92.58;97200.72;5054976;28;20048;-83
2023/01/29 01:48:11;;;;;;;18.60;10.60;;;;;;;0.03;92.52;97194.81;5047058;28;20038;-83
2023/01/29 01:50:43;;;;;;;12.93;7.57;;;;;;;-0.02;91.94;97200.03;5040926;28;20033;-82
2023/01/29 01:53:12;;;;;;;17.15;9.85;;;;;;;-0.01;91.87;97199.78;5046804;28;20354;-86
2023/01/29 01:55:44;;;;;;;15.20;8.93;;;;;;;-0.05;91.48;97189.78;5040404;28;20045;-82
2023/01/29 01:58:14;;;;;;;16.23;9.00;;;;;;;-0.11;90.91;97196.84;5054947;28;20036;-87
2023/01/29 02:00:42;;;;;;;15.98;9.18;;;;;;;-0.09;90.80;97193.97;5055057;28;20041;-84
2023/01/29 02:11:33;;;;;;;17.00;8.95;;;;;;;-0.03;89.63;97182.34;5049461;28;20098;-83
2023/01/29 02:14:00;;;;;;;18.63;9.07;;;;;;;0.01;89.38;97193.41;5042931;28;20555;-84
2023/01/29 02:16:28;;;;;;;18.83;9.63;;;;;;;0.00;89.02;97197.94;5043481;28;20037;-88
2023/01/29 02:18:54;;;;;;;16.05;9.13;;;;;;;0.00;88.83;97192.59;5054261;28;20041;-85
2023/01/29 02:21:41;;;;;;;14.90;8.68;;;;;;;0.04;88.94;97198.28;5041465;28;20042;-85
2023/01/29 02:24:47;;;;;;;22.20;10.82;;;;;;;0.04;89.14;97187.59;5040893;28;20053;-84
2023/01/29 02:27:18;;;;;;;19.67;9.70;;;;;;;0.04;89.12;97185.72;5049494;28;20041;-85
2023/01/29 02:29:56;;;;;;;17.70;9.20;;;;;;;0.06;89.11;97188.19;5047689;28;20045;-83
2023/01/29 02:32:30;;;;;;;17.92;9.65;;;;;;;0.11;88.95;97183.75;5047759;28;20044;-83
2023/01/29 02:35:29;;;;;;;14.32;8.27;;;;;;;-0.02;87.49;97184.78;5040990;28;20507;-84
2023/01/29 02:38:05;;;;;;;15.77;8.65;;;;;;;-0.12;86.83;97178.34;5046268;28;20087;-83
2023/01/29 02:40:40;;;;;;;14.52;8.25;;;;;;;-0.08;86.80;97169.63;5048621;28;20541;-82
2023/01/29 02:43:14;;;;;;;15.98;8.38;;;;;;;-0.02;86.99;97173.25;5044355;28;20127;-86
2023/01/29 02:45:47;;;;;;;17.83;9.27;;;;;;;0.00;87.33;97171.19;5051602;28;20033;-83
2023/01/29 02:48:18;;;;;;;15.85;8.20;;;;;;;0.04;87.68;97166.97;5051186;28;20048;-83
2023/01/29 02:50:53;;;;;;;15.15;8.95;;;;;;;-0.22;87.94;97162.84;5046038;28;20077;-85
2023/01/29 02:53:25;;;;;;;14.32;8.75;;;;;;;-0.29;88.25;97168.31;5047620;28;20498;-83
2023/01/29 02:55:56;;;;;;;15.75;8.90;;;;;;;-0.24;88.04;97180.19;5039859;28;20041;-82
2023/01/29 02:58:30;;;;;;;14.48;8.05;;;;;;;-0.14;87.21;97169.75;5046978;28;20041;-84
2023/01/29 03:01:03;;;;;;;13.77;7.63;;;;;;;-0.09;86.79;97169.88;5050652;28;20041;-82
2023/01/29 03:03:34;;;;;;;13.43;7.97;;;;;;;-0.06;86.50;97178.25;5046638;28;20052;-86
2023/01/29 03:06:06;;;;;;;13.48;7.57;;;;;;;-0.07;86.43;97171.25;5038795;28;20049;-84
2023/01/29 03:08:41;;;;;;;13.35;8.05;;;;;;;-0.04;86.28;97170.81;5048682;28;20127;-84
2023/01/29 03:11:12;;;;;;;14.43;7.72;;;;;;;-0.02;86.08;97176.75;5048068;28;20068;-82
2023/01/29 03:13:44;;;;;;;11.68;7.30;;;;;;;-0.01;85.92;97170.34;5044549;28;20065;-83
2023/01/29 03:16:19;;;;;;;13.30;7.70;;;;;;;0.05;85.62;97176.63;5043658;28;20040;-82
2023/01/29 03:18:52;;;;;;;12.50;7.47;;;;;;;0.09;85.25;97183.16;5041191;28;20105;-81
2023/01/29 03:32:37;;;;;;;16.80;9.23;;;;;;;0.07;84.93;97185.25;5045004;28;20048;-80
2023/01/29 03:35:07;;;;;;;17.05;9.38;;;;;;;0.07;85.45;97182.59;5043194;28;20408;-82
2023/01/29 03:37:39;;;;;;;14.32;8.23;;;;;;;0.08;85.51;97181.53;5035082;28;20041;-87
2023/01/29 03:40:07;;;;;;;16.08;8.98;;;;;;;0.01;85.70;97174.66;5040812;28;20061;-85
2023/01/29 03:42:44;;;;;;;17.58;9.00;;;;;;;-0.04;85.03;97175.34;5038144;28;20041;-84
2023/01/29 03:45:16;;;;;;;16.10;8.68;;;;;;;0.03;84.12;97169.88;5033209;28;20052;-82
2023/01/29 03:47:49;;;;;;;14.00;8.25;;;;;;;0.05;83.88;97165.91;5033072;28;20041;-81
2023/01/29 03:50:31;;;;;;;15.70;8.02;;;;;;;0.00;84.16;97155.13;5041187;28;20040;-81
2023/01/29 03:53:06;;;;;;;13.77;8.25;;;;;;;0.03;84.13;97151.97;5036407;28;20674;-80
2023/01/29 03:55:37;;;;;;;15.18;8.73;;;;;;;0.04;84.02;97153.59;5035520;28;20393;-81
2023/01/29 03:58:08;;;;;;;12.98;7.32;;;;;;;0.07;83.86;97150.44;5033833;28;20042;-85
2023/01/29 04:00:41;;;;;;;15.93;9.02;;;;;;;0.03;83.91;97151.97;5042401;28;20052;-82
2023/01/29 04:03:17;;;;;;;12.07;7.30;;;;;;;-0.10;84.44;97155.69;5038560;28;20049;-81
2023/01/29 04:05:49;;;;;;;23.15;10.52;;;;;;;-0.34;86.62;97149.44;5036670;28;20069;-82
2023/01/29 04:08:23;;;;;;;17.08;10.13;;;;;;;-0.40;87.56;97150.38;5039874;28;20056;-85
2023/01/29 04:10:51;;;;;;;17.02;10.35;;;;;;;-0.53;88.80;97145.19;5036141;28;20033;-82
2023/01/29 04:13:19;;;;;;;18.63;10.35;;;;;;;-0.53;89.08;97153.22;5034494;28;20060;-83
2023/01/29 04:15:50;;;;;;;18.50;10.00;;;;;;;-0.35;88.23;97153.16;5035622;28;20478;-82
2023/01/29 04:18:18;;;;;;;18.42;10.57;;;;;;;-0.30;87.40;97150.63;5035725;28;20037;-82
2023/01/29 04:20:45;;;;;;;18.73;10.13;;;;;;;-0.34;87.17;97160.16;5036252;28;20037;-82
2023/01/29 04:23:21;;;;;;;21.27;11.70;;;;;;;-0.41;86.87;97164.78;5036266;28;20072;-84
2023/01/29 04:25:56;;;;;;;19.25;11.15;;;;;;;-0.34;86.90;97167.38;5036572;28;20124;-81
2023/01/29 04:28:28;;;;;;;17.42;10.52;;;;;;;-0.21;86.57;97160.97;5035074;28;20041;-86
2023/01/29 04:31:00;;;;;;;26.77;11.07;;;;;;;-0.19;86.29;97156.22;5043989;28;20038;-82
2023/01/29 04:33:35;;;;;;;25.55;11.27;;;;;;;-0.12;86.27;97162.28;5036377;28;20514;-85
2023/01/29 04:36:18;;;;;;;27.52;11.55;;;;;;;-0.14;86.54;97164.41;5037109;28;20449;-83
2023/01/29 04:38:57;;;;;;;25.50;11.82;;;;;;;-0.18;85.95;97163.22;5035845;28;20041;-81
2023/01/29 04:41:29;;;;;;;32.17;12.07;;;;;;;-0.32;85.60;97163.41;5038917;28;20042;-82
2023/01/29 04:44:03;;;;;;;21.92;8.27;;;;;;;-0.23;85.62;97160.41;5035375;28;20489;-82
2023/01/29 04:46:35;;;;;;;35.00;12.15;;;;;;;-0.20;85.12;97154.59;5035444;28;20037;-83
2023/01/29 04:49:17;;;;;;;58.22;12.05;;;;;;;-0.19;85.06;97150.88;5034646;28;20041;-80
2023/01/29 04:51:49;;;;;;;68.80;11.77;;;;;;;-0.15;85.10;97149.38;5035302;28;20508;-82
2023/01/29 04:54:24;;;;;;;81.47;12.97;;;;;;;-0.17;84.81;97136.22;5034752;28;20037;-82
2023/01/29 04:56:55;;;;;;;26.98;11.13;;;;;;;-0.20;84.92;97139.38;5034859;28;20508;-83
2023/01/29 04:59:27;;;;;;;65.35;12.20;;;;;;;-0.25;84.58;97141.09;5033695;28;20517;-84
2023/01/29 05:01:54;;;;;;;62.65;12.05;;;;;;;-0.20;84.32;97146.59;5035796;28;20410;-81
2023/01/29 05:04:24;;;;;;;39.75;11.63;;;;;;;-0.20;84.37;97149.25;5034725;28;20041;-82
2023/01/29 05:06:52;;;;;;;22.08;11.57;;;;;;;-0.30;84.45;97155.97;5035805;28;20041;-80
2023/01/29 05:09:19;;;;;;;69.20;12.45;;;;;;;-0.33;84.63;97169.00;5034737;28;20049;-84
2023/01/29 05:11:47;;;;;;;43.17;12.38;;;;;;;-0.34;84.19;97162.81;5037679;28;20490;-81
2023/01/29 05:14:18;;;;;;;62.35;12.68;;;;;;;-0.31;84.22;97165.06;5034151;28;20383;-81
2023/01/29 05:16:47;;;;;;;52.78;12.90;;;;;;;-0.24;83.89;97169.50;5034631;28;20050;-85
2023/01/29 05:19:15;;;;;;;70.72;13.68;;;;;;;-0.20;83.73;97166.13;5034750;28;20049;-82
2023/01/29 05:21:45;;;;;;;45.17;12.32;;;;;;;-0.15;83.59;97173.47;5035033;28;20255;-85
2023/01/29 05:24:14;;;;;;;73.75;14.52;;;;;;;-0.17;83.79;97170.19;5034892;28;20040;-83
2023/01/29 05:29:26;;;;;;;66.47;13.20;;;;;;;-0.13;83.91;97176.72;5042274;28;20099;-85
2023/01/29 05:31:52;;;;;;;53.25;13.23;;;;;;;-0.09;83.88;97194.78;5035185;28;20037;-82
2023/01/29 05:34:19;;;;;;;43.22;12.63;;;;;;;-0.06;83.64;97194.31;5034403;28;20057;-82
2023/01/29 05:36:47;;;;;;;72.28;13.13;;;;;;;-0.05;83.73;97187.13;5035032;28;20545;-81
2023/01/29 05:39:13;;;;;;;49.15;12.50;;;;;;;-0.11;83.51;97198.72;5035367;28;20052;-84
2023/01/29 05:41:40;;;;;;;62.65;13.60;;;;;;;-0.14;83.46;97191.16;5038066;28;20052;-86
2023/01/29 05:44:06;;;;;;;56.13;13.02;;;;;;;-0.05;82.80;97184.44;5035115;28;20042;-84
2023/01/29 05:46:33;;;;;;;22.85;12.85;;;;;;;-0.05;82.47;97192.47;5036271;28;20052;-82
2023/01/29 05:48:59;;;;;;;23.23;12.70;;;;;;;-0.07;82.50;97186.50;5034399;28;20430;-86
2023/01/29 05:51:25;;;;;;;48.78;12.93;;;;;;;-0.01;82.21;97182.91;5035363;28;20045;-87
2023/01/29 05:53:55;;;;;;;37.22;13.90;;;;;;;-0.04;82.12;97191.41;5035157;28;20033;-81
2023/01/29 05:56:21;;;;;;;30.80;13.15;;;;;;;-0.09;82.04;97193.97;5034649;28;20033;-81
2023/01/29 05:58:47;;;;;;;30.67;13.02;;;;;;;-0.05;82.03;97187.13;5035332;28;20075;-82
2023/01/29 06:01:16;;;;;;;43.35;13.93;;;;;;;0.01;81.81;97188.06;5035247;28;20428;-83
2023/01/29 06:03:43;;;;;;;32.10;13.00;;;;;;;-0.03;81.84;97177.78;5036687;28;20393;-81
2023/01/29 06:06:10;;;;;;;67.95;13.80;;;;;;;0.02;81.96;97174.44;5034812;28;20050;-83
2023/01/29 06:08:37;;;;;;;35.40;13.00;;;;;;;0.03;81.41;97169.88;5034979;28;20068;-86
2023/01/29 06:11:08;;;;;;;62.05;12.45;;;;;;;0.04;81.43;97174.19;5035953;28;20040;-83
2023/01/29 06:13:34;;;;;;;50.13;11.73;;;;;;;0.02;80.73;97174.44;5039697;28;20033;-82
2023/01/29 06:16:04;;;;;;;35.92;11.70;;;;;;;0.02;80.68;97178.97;5046689;28;20045;-82
2023/01/29 06:18:30;;;;;;;37.58;12.20;;;;;;;0.04;80.67;97175.00;5038110;28;20048;-82
2023/01/29 06:21:00;;;;;;;47.15;11.98;;;;;;;0.07;80.46;97177.22;5038807;28;20044;-81
2023/01/29 06:23:27;;;;;;;54.80;12.20;;;;;;;0.12;80.53;97196.09;5037779;28;20044;-82
2023/01/29 06:25:53;;;;;;;27.92;11.98;;;;;;;0.02;80.78;97190.50;5038352;28;20041;-81
2023/01/29 06:28:21;;;;;;;50.28;12.80;;;;;;;-0.02;80.89;97182.09;5045971;28;20383;-82
2023/01/29 06:30:47;;;;;;;40.30;12.63;;;;;;;0.01;80.95;97183.50;5042775;28;20626;-82
2023/01/29 06:33:14;;;;;;;57.65;13.48;;;;;;;0.07;80.67;97181.78;5036776;28;20041;-85
2023/01/29 06:35:40;;;;;;;46.45;13.00;;;;;;;0.12;80.50;97196.09;5038133;28;20409;-84
2023/01/29 06:38:07;;;;;;;77.07;14.95;;;;;;;0.07;80.40;97187.94;5036739;28;20437;-84
2023/01/29 06:40:33;;;;;;;37.70;12.70;;;;;;;0.02;80.47;97190.50;5042688;28;20041;-83
2023/01/29 06:43:00;;;;;;;36.42;11.23;;;;;;;-0.11;81.13;97191.50;5038060;28;20048;-84
2023/01/29 06:45:28;;;;;;;56.30;11.57;;;;;;;-0.09;80.98;97193.97;5037458;28;20379;-82
2023/01/29 06:47:54;;;;;;;38.20;10.88;;;;;;;-0.04;80.66;97194.09;5037481;28;20048;-83
2023/01/29 06:50:20;;;;;;;29.95;11.07;;;;;;;-0.07;80.60;97202.56;5036888;28;20112;-85
2023/01/29 06:52:47;;;;;;;25.98;11.07;;;;;;;-0.06;80.54;97196.16;5037415;28;20037;-86
2023/01/29 06:55:13;;;;;;;41.72;12.45;;;;;;;-0.11;80.71;97196.03;5035995;28;20034;-82
2023/01/29 06:57:40;;;;;;;47.70;13.07;;;;;;;-0.04;80.64;97191.41;5036193;28;20045;-87
2023/01/29 07:00:08;;;;;;;46.50;12.40;;;;;;;0.01;80.72;97191.53;5036427;28;20045;-84
2023/01/29 07:02:36;;;;;;;47.28;13.65;;;;;;;-0.07;80.42;97187.31;5036637;28;20041;-83
2023/01/29 07:05:03;;;;;;;43.13;13.27;;;;;;;-0.09;80.39;97183.25;5036676;28;20045;-83
2023/01/29 07:07:29;;;;;;;58.92;14.70;;;;;;;-0.06;80.35;97174.75;5037307;28;20048;-80
2023/01/29 07:09:55;;;;;;;46.55;13.20;;;;;;;-0.11;80.78;97180.78;5039541;28;20052;-80
2023/01/29 07:12:22;;;;;;;38.25;12.85;;;;;;;-0.18;80.32;97184.63;5037291;28;20080;-80
2023/01/29 07:14:48;;;;;;;46.55;12.88;;;;;;;-0.33;81.26;97179.69;5037892;28;20429;-87
2023/01/29 07:17:15;;;;;;;50.05;13.00;;;;;;;-0.32;81.23;97171.44;5040489;28;20520;-85
2023/01/29 07:19:43;;;;;;;48.15;11.35;;;;;;;-0.27;80.82;97170.75;5041306;28;20513;-85
2023/01/29 07:22:09;;;;;;;57.75;12.80;;;;;;;-0.19;80.39;97169.63;5040432;28;20041;-86
2023/01/29 07:24:35;;;;;;;48.28;10.60;;;;;;;-0.16;80.10;97164.59;5044145;28;20124;-83
2023/01/29 07:27:02;;;;;;;63.70;11.45;;;;;;;-0.13;79.89;97168.69;5037307;28;20452;-82
2023/01/29 07:29:28;;;;;;;40.00;11.88;;;;;;;-0.03;79.90;97166.28;5037449;28;20402;-84
2023/01/29 07:31:55;;;;;;;40.08;12.02;;;;;;;0.03;79.80;97165.34;5038147;28;20041;-82
2023/01/29 07:34:21;;;;;;;46.33;11.15;;;;;;;0.07;79.76;97160.34;5036746;28;20048;-82
2023/01/29 07:36:49;;;;;;;48.35;11.05;;;;;;;0.07;79.27;97155.00;5036139;28;20604;-82
2023/01/29 07:39:15;;;;;;;55.28;11.63;;;;;;;0.08;78.84;97154.75;5039229;28;20053;-81
2023/01/29 07:41:42;;;;;;;61.28;12.30;;;;;;;0.12;78.59;97158.59;5040205;28;20041;-84
2023/01/29 07:44:08;;;;;;;62.00;13.52;;;;;;;0.12;78.05;97152.44;5033982;28;20037;-85
2023/01/29 07:46:35;;;;;;;61.25;13.13;;;;;;;0.18;78.31;97154.19;5035740;28;20037;-85
2023/01/29 07:49:01;;;;;;;49.33;12.18;;;;;;;0.18;78.42;97162.22;5034796;28;20049;-85
2023/01/29 07:51:28;;;;;;;68.82;15.45;;;;;;;0.22;78.95;97169.56;5046380;28;20041;-83
2023/01/29 07:53:56;;;;;;;65.85;13.75;;;;;;;0.23;78.89;97167.69;5039730;28;20048;-81
2023/01/29 07:56:22;;;;;;;54.08;14.13;;;;;;;0.05;79.66;97163.25;5038120;28;20049;-82
2023/01/29 07:58:49;;;;;;;60.33;14.23;;;;;;;0.04;79.92;97161.63;5036436;28;20038;-82
2023/01/29 08:01:16;;;;;;;58.90;14.43;;;;;;;-0.36;80.61;97164.94;5035016;28;20041;-84
2023/01/29 08:03:43;;;;;;;47.45;13.15;;;;;;;-0.20;81.15;97173.34;5043156;28;20048;-84
2023/01/29 08:06:09;;;;;;;75.22;14.18;;;;;;;-0.12;80.86;97167.66;5036082;28;20041;-84
2023/01/29 08:08:36;;;;;;;45.13;12.30;;;;;;;-0.07;80.77;97165.09;5036987;28;20037;-83
2023/01/29 08:11:05;;;;;;;79.35;13.57;;;;;;;0.01;81.11;97170.13;5038870;28;20514;-85
2023/01/29 08:13:32;;;;;;;58.22;12.55;;;;;;;0.03;80.69;97175.25;5036436;28;20095;-82
2023/01/29 08:16:00;;;;;;;51.30;13.25;;;;;;;-0.25;80.83;97167.88;5041581;28;20049;-82
2023/01/29 08:18:27;;;;;;;23.00;12.77;;;;;;;-0.21;81.42;97172.50;5040391;28;20038;-82
2023/01/29 08:20:59;;;;;;;41.90;14.02;;;;;;;-0.13;81.25;97177.53;5039271;28;20041;-81
2023/01/29 08:23:25;;;;;;;55.17;13.75;;;;;;;-0.04;81.15;97180.72;5037220;28;20037;-82
2023/01/29 08:25:52;;;;;;;71.70;13.57;;;;;;;0.08;80.86;97181.53;5037397;28;20049;-82
2023/01/29 08:28:20;;;;;;;78.00;14.02;;;;;;;0.15;80.62;97181.41;5042319;28;20045;-82
2023/01/29 08:30:46;;;;;;;63.80;13.52;;;;;;;0.18;80.95;97187.13;5035681;28;20410;-84
2023/01/29 08:33:13;;;;;;;81.88;13.77;;;;;;;0.23;80.91;97189.94;5040744;28;20045;-84
2023/01/29 08:35:40;;;;;;;79.18;12.43;;;;;;;0.23;81.02;97192.63;5034822;28;20041;-88
2023/01/29 08:38:06;;;;;;;54.35;13.88;;;;;;;0.23;80.94;97202.53;5034307;28;20076;-81
2023/01/29 08:40:34;;;;;;;39.58;12.70;;;;;;;0.29;80.62;97201.59;5037210;28;20041;-83
2023/01/29 08:43:02;;;;;;;20.13;11.20;;;;;;;0.33;80.52;97207.31;5035296;28;20524;-85
2023/01/29 08:45:30;;;;;;;41.08;13.07;;;;;;;0.30;80.64;97215.78;5042924;28;20038;-85
2023/01/29 08:47:57;;;;;;;48.25;11.32;;;;;;;0.10;81.23;97214.25;5034788;28;20033;-82
2023/01/29 08:50:23;;;;;;;66.72;11.60;;;;;;;0.04;82.10;97214.34;5033935;28;20045;-85
2023/01/29 08:52:50;;;;;;;44.05;9.27;;;;;;;0.08;82.30;97223.56;5034664;28;20033;-83
2023/01/29 08:55:17;;;;;;;82.60;10.60;;;;;;;-0.10;81.78;97225.28;5040769;28;20049;-82
2023/01/29 08:57:44;;;;;;;71.13;10.52;;;;;;;-0.03;81.58;97225.19;5034644;28;20540;-85
2023/01/29 09:00:11;;;;;;;81.03;11.38;;;;;;;0.04;80.97;97225.88;5032995;28;20041;-83
2023/01/29 09:02:39;;;;;;;47.60;10.40;;;;;;;-0.05;80.20;97222.75;5035731;28;20036;-84
2023/01/29 09:05:07;;;;;;;89.88;12.50;;;;;;;0.07;79.58;97225.44;5033596;28;20042;-83
2023/01/29 09:07:33;;;;;;;75.10;11.98;;;;;;;0.14;78.97;97234.16;5033536;28;20041;-85
2023/01/29 09:10:00;;;;;;;54.33;10.18;;;;;;;0.22;78.93;97235.72;5036996;28;20029;-83
2023/01/29 09:12:26;;;;;;;70.32;11.88;;;;;;;0.29;78.96;97231.06;5033451;28;20048;-83
2023/01/29 09:14:53;;;;;;;45.60;10.32;;;;;;;0.36;78.51;97233.63;5042577;28;20039;-83
2023/01/29 09:17:19;;;;;;;60.72;10.52;;;;;;;0.40;78.26;97240.16;5034180;28;20413;-82
2023/01/29 09:19:47;;;;;;;47.28;9.45;;;;;;;0.29;76.55;97239.09;5034526;28;20042;-82
2023/01/29 09:22:14;;;;;;;63.95;9.65;;;;;;;0.14;77.03;97247.56;5034317;28;20053;-86
2023/01/29 09:24:40;;;;;;;48.58;8.23;;;;;;;0.16;76.24;97242.00;5045558;28;20047;-83
2023/01/29 09:27:08;;;;;;;87.00;9.57;;;;;;;0.09;77.03;97249.28;5036348;28;20042;-82
2023/01/29 09:29:35;;;;;;;47.42;8.35;;;;;;;0.12;77.10;97254.22;5033281;28;20041;-83
2023/01/29 09:32:01;;;;;;;46.83;8.23;;;;;;;0.09;77.60;97249.28;5033715;28;20405;-84
2023/01/29 09:34:28;;;;;;;45.92;7.65;;;;;;;0.22;76.76;97246.44;5034381;28;20037;-85
2023/01/29 09:36:56;;;;;;;45.53;7.50;;;;;;;0.27;75.47;97254.59;5034650;28;20048;-82
2023/01/29 09:39:22;;;;;;;27.17;5.95;;;;;;;0.34;74.91;97262.50;5036256;28;20088;-83
2023/01/29 09:41:56;;;;;;;50.03;7.35;;;;;;;0.04;73.92;97260.69;5037076;28;20040;-85
2023/01/29 09:44:38;;;;;;;45.17;6.82;;;;;;;0.06;74.42;97261.31;5033532;28;20049;-83
2023/01/29 09:47:11;;;;;;;71.75;7.53;;;;;;;-0.05;75.66;97254.06;5033419;28;20037;-84
2023/01/29 09:49:41;;;;;;;61.28;7.43;;;;;;;0.10;74.75;97262.44;5035327;28;20044;-84
2023/01/29 09:52:16;;;;;;;51.97;7.53;;;;;;;0.21;74.05;97259.00;5035193;28;20140;-85
2023/01/29 09:54:51;;;;;;;47.45;6.97;;;;;;;0.39;72.99;97254.59;5037469;28;20045;-87
2023/01/29 09:57:24;;;;;;;51.75;6.50;;;;;;;0.36;71.50;97255.88;5043740;28;20053;-81
2023/01/29 09:59:50;;;;;;;;;;;;;;;0.50;71.35;97251.13;5039794;28;20045;-84
2023/01/29 10:02:42;;;;;;;72.60;8.05;;;;;;;0.44;71.66;97246.69;5037817;28;19917;-86
2023/01/29 10:05:25;;;;;;;47.92;8.70;;;;;;;0.45;73.13;97248.31;5037134;28;20247;-86
2023/01/29 10:08:18;;;;;;;44.25;7.82;;;;;;;0.27;74.46;97251.09;5038106;28;20045;-82
2023/01/29 10:10:50;;;;;;;41.95;7.60;;;;;;;0.42;74.14;97248.78;5040170;28;20064;-81
2023/01/29 10:13:27;;;;;;;58.20;8.75;;;;;;;0.51;73.94;97245.53;5045307;28;20037;-84
2023/01/29 10:16:11;;;;;;;65.68;8.82;;;;;;;0.59;73.38;97249.72;5038905;28;20037;-88
2023/01/29 10:19:04;;;;;;;60.63;8.65;;;;;;;0.69;73.13;97241.94;5038512;28;20048;-86
2023/01/29 10:22:08;;;;;;;53.67;8.95;;;;;;;0.73;73.16;97243.09;5028615;28;20044;-84
2023/01/29 10:24:38;;;;;;;55.03;8.93;;;;;;;0.62;73.51;97240.41;5024589;28;20044;-83
2023/01/29 10:27:14;;;;;;;78.80;9.27;;;;;;;0.54;72.98;97241.56;5041544;28;20425;-81
2023/01/29 10:29:42;;;;;;;52.13;7.82;;;;;;;0.49;72.60;97234.22;5040538;28;20041;-87
2023/01/29 10:32:14;;;;;;;43.67;7.95;;;;;;;0.21;73.36;97234.09;5042355;28;20036;-82
2023/01/29 10:34:45;;;;;;;35.93;7.73;;;;;;;0.18;73.72;97238.03;5037277;28;20220;-85
2023/01/29 10:37:17;;;;;;;45.97;8.07;;;;;;;0.21;73.70;97231.41;5036267;28;20048;-83
2023/01/29 10:39:45;;;;;;;42.40;7.82;;;;;;;0.27;73.95;97230.47;5037639;28;20547;-84
2023/01/29 10:42:24;;;;;;;40.42;7.85;;;;;;;0.36;72.76;97226.41;5046492;28;20490;-84
2023/01/29 10:45:09;;;;;;;44.47;8.25;;;;;;;0.36;72.79;97220.22;5037752;28;20047;-84
2023/01/29 10:48:09;;;;;;;53.45;8.90;;;;;;;0.30;72.10;97218.47;5045700;28;20045;-84
2023/01/29 10:50:46;;;;;;;32.35;8.02;;;;;;;0.23;73.25;97218.59;5034571;28;20639;-81
2023/01/29 10:53:27;;;;;;;46.08;8.52;;;;;;;0.30;72.43;97223.84;5037384;28;20041;-84
2023/01/29 10:56:05;;;;;;;37.97;8.32;;;;;;;0.22;73.16;97220.47;5037903;28;20056;-84
2023/01/29 10:58:40;;;;;;;39.00;7.35;;;;;;;0.17;72.88;97219.53;5037180;28;20501;-88
2023/01/29 11:01:07;;;;;;;39.53;7.70;;;;;;;0.04;71.97;97222.38;5038034;28;20714;-82
2023/01/29 11:03:33;;;;;;;28.83;7.07;;;;;;;0.04;72.54;97220.53;5044502;28;20041;-86
2023/01/29 11:06:10;;;;;;;31.15;7.15;;;;;;;0.18;70.83;97219.28;5036610;28;20118;-81
2023/01/29 11:08:41;;;;;;;23.63;6.40;;;;;;;0.20;70.56;97219.84;5044183;28;20038;-80
2023/01/29 11:11:12;;;;;;;65.63;9.07;;;;;;;0.02;70.10;97217.28;5038747;28;20060;-86
2023/01/29 11:13:43;;;;;;;29.33;5.82;;;;;;;-0.03;69.82;97214.47;5047168;28;20051;-87
2023/01/29 11:16:10;;;;;;;60.22;8.93;;;;;;;-0.04;70.10;97207.47;5040998;28;20044;-87
2023/01/29 11:18:55;;;;;;;54.30;8.10;;;;;;;0.14;70.02;97207.38;5038100;28;20052;-83
2023/01/29 11:21:23;;;;;;;41.20;7.75;;;;;;;0.09;70.22;97201.09;5049254;28;20040;-83
2023/01/29 11:23:50;;;;;;;52.38;7.32;;;;;;;0.09;68.78;97207.25;5052668;28;20087;-85
2023/01/29 11:26:22;;;;;;;54.30;7.22;;;;;;;-0.36;70.85;97193.56;5038977;28;20041;-83
2023/01/29 11:28:50;;;;;;;84.27;8.43;;;;;;;-0.29;71.49;97197.75;5041051;28;20033;-87
2023/01/29 11:31:20;;;;;;;95.45;9.63;;;;;;;-0.07;70.83;97189.19;5040861;28;20057;-84
2023/01/29 11:33:46;;;;;;;34.63;7.35;;;;;;;0.20;70.70;97182.34;5038248;28;20041;-85
2023/01/29 11:36:37;;;;;;;55.80;8.55;;;;;;;0.25;69.95;97185.16;5034855;28;20040;-86
2023/01/29 11:39:17;;;;;;;38.83;7.28;;;;;;;0.24;70.01;97172.00;5041716;28;20041;-88
2023/01/29 11:41:48;;;;;;;46.45;8.05;;;;;;;0.35;69.38;97170.38;5038404;28;20045;-88
2023/01/29 11:44:26;;;;;;;53.78;8.65;;;;;;;0.08;69.48;97152.06;5042741;28;20067;-88
2023/01/29 11:46:52;;;;;;;41.42;7.65;;;;;;;0.12;69.28;97137.19;5036937;28;20037;-88
2023/01/29 11:49:27;;;;;;;27.95;6.72;;;;;;;0.28;68.61;97134.84;5033881;28;20060;-86
2023/01/29 11:51:56;;;;;;;38.22;7.18;;;;;;;-0.51;70.52;97129.75;5035676;28;20048;-88
2023/01/29 11:54:27;;;;;;;40.42;7.00;;;;;;;-0.61;71.18;97118.78;5037700;28;20041;-85
2023/01/29 11:56:56;;;;;;;39.17;7.03;;;;;;;-0.39;70.46;97111.84;5038716;28;20044;-87
2023/01/29 11:59:34;;;;;;;27.25;6.88;;;;;;;-0.04;69.08;97111.91;5035922;28;20056;-88
2023/01/29 12:02:12;;;;;;;49.63;8.25;;;;;;;0.30;69.22;97111.31;5036654;28;20065;-85
2023/01/29 12:04:40;;;;;;;37.40;7.80;;;;;;;0.15;69.18;97101.88;5037012;28;20037;-90
2023/01/29 12:07:13;;;;;;;34.20;7.65;;;;;;;0.02;69.55;97104.00;5035497;28;20041;-82
2023/01/29 12:09:40;;;;;;;;;;;;;;;-0.14;70.29;97108.19;5035880;28;20403;-79